createdAt,value
2023-03-17T00:01:44.840Z,31.73
2023-03-17T00:04:12.551Z,31.69
2023-03-17T00:06:40.679Z,31.93
2023-03-17T00:09:18.396Z,31.66
2023-03-17T00:11:46.198Z,31.71
2023-03-17T00:14:14.190Z,31.88
2023-03-17T00:16:43.139Z,31.75
2023-03-17T00:19:42.371Z,31.95
2023-03-17T00:22:17.776Z,31.52
2023-03-17T00:24:44.705Z,31.44
2023-03-17T00:27:13.264Z,31.57
2023-03-17T00:29:40.534Z,31.29
2023-03-17T00:32:17.033Z,31.34
2023-03-17T00:34:44.771Z,31.50
2023-03-17T00:37:12.831Z,31.38
2023-03-17T00:39:40.041Z,31.65
2023-03-17T00:42:07.074Z,31.58
2023-03-17T00:44:34.579Z,31.62
2023-03-17T00:47:01.903Z,31.43
2023-03-17T00:49:29.052Z,31.45
2023-03-17T00:51:55.646Z,31.44
2023-03-17T00:54:22.401Z,31.41
2023-03-17T00:56:52.672Z,31.50
2023-03-17T00:59:35.370Z,31.33
2023-03-17T01:02:02.113Z,31.55
2023-03-17T01:04:32.195Z,31.37
2023-03-17T01:06:59.308Z,31.41
2023-03-17T01:09:27.619Z,31.37
2023-03-17T01:11:55.521Z,31.35
2023-03-17T01:14:22.556Z,31.31
2023-03-17T01:16:49.325Z,31.20
2023-03-17T01:19:16.736Z,31.39
2023-03-17T01:21:43.302Z,31.47
2023-03-17T01:24:10.734Z,31.56
2023-03-17T01:26:38.256Z,31.32
2023-03-17T01:29:06.279Z,31.33
2023-03-17T01:31:32.935Z,31.48
2023-03-17T01:33:59.960Z,31.33
2023-03-17T01:36:26.508Z,31.28
2023-03-17T01:38:53.805Z,31.33
2023-03-17T01:41:20.737Z,31.27
2023-03-17T01:43:47.633Z,31.14
2023-03-17T01:46:28.092Z,31.38
2023-03-17T01:49:16.026Z,31.20
2023-03-17T01:52:15.776Z,31.28
2023-03-17T01:54:50.320Z,31.48
2023-03-17T01:57:16.872Z,31.25
2023-03-17T01:59:51.353Z,31.16
2023-03-17T02:02:23.451Z,31.32
2023-03-17T02:04:52.986Z,31.32
2023-03-17T02:07:22.192Z,31.18
2023-03-17T02:09:49.586Z,31.27
2023-03-17T02:12:22.244Z,31.05
2023-03-17T02:14:50.026Z,31.06
2023-03-17T02:17:16.574Z,31.35
2023-03-17T02:19:43.678Z,31.22
2023-03-17T02:22:11.472Z,31.22
2023-03-17T02:24:45.927Z,31.17
2023-03-17T02:27:31.576Z,30.77
2023-03-17T02:29:59.787Z,31.13
2023-03-17T02:32:26.942Z,31.04
2023-03-17T02:34:55.281Z,31.13
2023-03-17T02:37:21.950Z,30.93
2023-03-17T02:39:48.551Z,30.87
2023-03-17T02:42:15.292Z,31.17
2023-03-17T02:44:42.078Z,31.04
2023-03-17T02:47:08.761Z,31.04
2023-03-17T02:49:37.320Z,30.99
2023-03-17T02:52:05.157Z,31.00
2023-03-17T02:54:32.106Z,30.96
2023-03-17T02:56:59.841Z,30.93
2023-03-17T02:59:27.007Z,31.00
2023-03-17T03:01:54.649Z,30.84
2023-03-17T03:04:21.317Z,30.99
2023-03-17T03:06:48.315Z,31.04
2023-03-17T03:09:17.679Z,31.03
2023-03-17T03:11:45.109Z,30.88
2023-03-17T03:14:11.942Z,30.76
2023-03-17T03:16:39.801Z,30.81
2023-03-17T03:19:07.826Z,31.05
2023-03-17T03:21:35.112Z,31.04
2023-03-17T03:24:01.667Z,30.94
2023-03-17T03:26:28.421Z,30.72
2023-03-17T03:28:57.278Z,31.00
2023-03-17T03:31:24.697Z,30.89
2023-03-17T03:33:51.965Z,30.96
2023-03-17T03:36:18.898Z,30.79
2023-03-17T03:38:45.678Z,30.81
2023-03-17T03:41:13.063Z,30.78
2023-03-17T03:43:39.831Z,30.92
2023-03-17T03:46:06.908Z,30.86
2023-03-17T03:48:33.592Z,30.63
2023-03-17T03:51:02.149Z,30.74
2023-03-17T03:53:29.279Z,30.86
2023-03-17T03:55:56.474Z,30.87
2023-03-17T03:58:23.319Z,30.84
2023-03-17T04:00:50.064Z,30.88
2023-03-17T04:03:17.025Z,30.69
2023-03-17T04:05:43.726Z,30.54
2023-03-17T04:08:11.287Z,30.67
2023-03-17T04:10:38.035Z,30.87
2023-03-17T04:13:04.960Z,30.82
2023-03-17T04:15:31.845Z,30.69
2023-03-17T04:17:58.355Z,30.69
2023-03-17T04:20:24.968Z,30.80
2023-03-17T04:22:51.813Z,30.51
2023-03-17T04:25:18.608Z,30.71
2023-03-17T04:27:45.199Z,30.71
2023-03-17T04:30:13.901Z,30.47
2023-03-17T04:32:41.586Z,30.62
2023-03-17T04:35:12.160Z,30.62
2023-03-17T04:37:38.996Z,30.42
2023-03-17T04:40:12.148Z,30.50
2023-03-17T04:42:39.190Z,30.52
2023-03-17T04:45:06.881Z,30.47
2023-03-17T04:47:34.009Z,30.62
2023-03-17T04:50:01.400Z,30.49
2023-03-17T04:52:28.422Z,30.78
2023-03-17T04:54:55.037Z,30.60
2023-03-17T04:57:22.306Z,30.57
2023-03-17T04:59:48.859Z,30.67
2023-03-17T05:02:15.490Z,30.65
2023-03-17T05:04:42.794Z,30.52
2023-03-17T05:07:09.430Z,30.55
2023-03-17T05:09:36.055Z,30.49
2023-03-17T05:12:02.753Z,30.41
2023-03-17T05:14:29.520Z,30.65
2023-03-17T05:16:56.230Z,30.65
2023-03-17T05:19:22.994Z,30.52
2023-03-17T05:21:49.624Z,30.79
2023-03-17T05:24:16.154Z,30.59
2023-03-17T05:26:42.823Z,30.62
2023-03-17T05:29:10.039Z,30.49
2023-03-17T05:31:37.402Z,30.59
2023-03-17T05:34:04.242Z,30.57
2023-03-17T05:36:32.024Z,30.59
2023-03-17T05:38:58.568Z,30.45
2023-03-17T05:41:25.679Z,30.50
2023-03-17T05:43:52.441Z,30.37
2023-03-17T05:46:20.418Z,30.26
2023-03-17T05:48:47.514Z,30.56
2023-03-17T05:51:14.415Z,30.62
2023-03-17T05:53:41.684Z,30.73
2023-03-17T05:56:09.264Z,30.71
2023-03-17T05:58:36.567Z,30.64
2023-03-17T06:01:03.181Z,30.56
2023-03-17T06:03:29.852Z,30.63
2023-03-17T06:05:58.926Z,31.04
2023-03-17T06:08:25.738Z,31.30
2023-03-17T06:10:52.606Z,31.15
2023-03-17T06:13:19.138Z,30.89
2023-03-17T06:15:49.505Z,30.39
2023-03-17T06:18:16.140Z,30.33
2023-03-17T06:20:42.872Z,30.06
2023-03-17T06:23:09.520Z,29.92
2023-03-17T06:25:37.028Z,29.90
2023-03-17T06:28:05.440Z,29.91
2023-03-17T06:30:33.753Z,29.85
2023-03-17T06:33:01.690Z,29.83
2023-03-17T06:35:29.441Z,29.84
2023-03-17T06:37:56.320Z,29.73
2023-03-17T06:40:22.936Z,29.64
2023-03-17T06:42:49.605Z,29.76
2023-03-17T06:45:16.323Z,29.65
2023-03-17T06:47:43.528Z,29.75
2023-03-17T06:50:13.457Z,29.62
2023-03-17T06:52:40.840Z,29.51
2023-03-17T06:55:08.546Z,29.49
2023-03-17T06:57:35.750Z,29.47
2023-03-17T07:00:03.428Z,29.48
2023-03-17T07:02:30.081Z,29.38
2023-03-17T07:04:58.168Z,29.48
2023-03-17T07:07:25.126Z,29.29
2023-03-17T07:09:52.768Z,29.10
2023-03-17T07:12:20.103Z,29.11
2023-03-17T07:14:46.742Z,29.17
2023-03-17T07:17:14.911Z,29.06
2023-03-17T07:19:41.696Z,29.19
2023-03-17T07:22:11.844Z,29.12
2023-03-17T07:24:39.607Z,28.85
2023-03-17T07:27:06.300Z,28.94
2023-03-17T07:29:33.947Z,28.99
2023-03-17T07:32:01.415Z,28.96
2023-03-17T07:34:28.431Z,28.92
2023-03-17T07:36:55.540Z,28.77
2023-03-17T07:39:22.435Z,28.84
2023-03-17T07:41:57.797Z,28.68
2023-03-17T07:44:25.937Z,28.61
2023-03-17T07:46:52.572Z,28.74
2023-03-17T07:49:30.755Z,28.77
2023-03-17T07:52:08.974Z,28.75
2023-03-17T07:54:37.005Z,28.78
2023-03-17T07:57:05.151Z,28.62
2023-03-17T07:59:32.355Z,28.61
2023-03-17T08:02:01.186Z,28.68
2023-03-17T08:04:28.332Z,28.56
2023-03-17T08:06:55.005Z,28.57
2023-03-17T08:09:24.891Z,28.61
2023-03-17T08:11:51.606Z,28.52
2023-03-17T08:14:18.644Z,28.48
2023-03-17T08:19:10.764Z,28.51
2023-03-17T08:21:39.064Z,28.55
2023-03-17T08:24:06.074Z,28.52
2023-03-17T08:26:32.724Z,28.56
2023-03-17T08:28:59.906Z,28.48
2023-03-17T08:31:26.600Z,28.46
2023-03-17T08:33:54.442Z,28.34
2023-03-17T08:36:21.842Z,28.27
2023-03-17T08:38:48.768Z,28.48
2023-03-17T08:41:18.962Z,28.40
2023-03-17T08:43:45.979Z,28.47
2023-03-17T08:46:24.974Z,28.35
2023-03-17T08:48:54.058Z,28.45
2023-03-17T08:51:24.223Z,28.39
2023-03-17T08:53:52.043Z,28.46
2023-03-17T08:56:19.193Z,28.47
2023-03-17T08:58:47.056Z,28.38
2023-03-17T09:01:17.661Z,28.51
2023-03-17T09:03:45.126Z,28.38
2023-03-17T09:06:12.284Z,28.36
2023-03-17T09:08:44.729Z,28.31
2023-03-17T09:11:14.741Z,28.48
2023-03-17T09:13:41.544Z,28.47
2023-03-17T09:16:09.020Z,28.63
2023-03-17T09:18:36.413Z,28.70
2023-03-17T09:21:03.518Z,28.79
2023-03-17T09:23:30.883Z,29.09
2023-03-17T09:25:57.657Z,28.91
2023-03-17T09:28:24.691Z,28.98
2023-03-17T09:30:51.535Z,29.17
2023-03-17T09:33:18.954Z,29.22
2023-03-17T09:35:45.580Z,29.28
2023-03-17T09:38:12.911Z,29.26
2023-03-17T09:40:51.554Z,29.26
2023-03-17T09:43:39.445Z,29.19
2023-03-17T09:46:30.622Z,28.99
2023-03-17T09:49:09.309Z,29.06
2023-03-17T09:51:36.627Z,28.69
2023-03-17T09:54:31.422Z,28.76
2023-03-17T09:57:06.523Z,28.61
2023-03-17T09:59:42.247Z,28.71
2023-03-17T10:02:28.396Z,28.55
2023-03-17T10:04:56.102Z,28.56
2023-03-17T10:07:33.993Z,28.54
2023-03-17T10:10:03.459Z,28.60
2023-03-17T10:12:36.102Z,28.92
2023-03-17T10:15:18.481Z,28.94
2023-03-17T10:17:46.137Z,28.97
2023-03-17T10:20:27.186Z,29.20
2023-03-17T10:22:59.274Z,28.98
2023-03-17T10:25:29.768Z,28.66
2023-03-17T10:27:59.986Z,28.53
2023-03-17T10:30:27.376Z,28.37
2023-03-17T10:32:58.776Z,27.87
2023-03-17T10:37:47.698Z,27.97
2023-03-17T10:40:25.924Z,27.95
2023-03-17T10:43:07.851Z,28.00
2023-03-17T10:45:40.895Z,28.25
2023-03-17T10:48:09.743Z,28.08
2023-03-17T10:50:38.097Z,28.54
2023-03-17T10:53:08.359Z,28.40
2023-03-17T10:55:37.632Z,28.44
2023-03-17T10:58:14.266Z,28.34
2023-03-17T11:01:00.251Z,28.06
2023-03-17T11:03:35.847Z,28.02
2023-03-17T11:06:05.606Z,28.32
2023-03-17T11:08:35.554Z,28.55
2023-03-17T11:11:10.357Z,28.49
2023-03-17T11:13:37.339Z,28.87
2023-03-17T11:16:15.660Z,28.84
2023-03-17T11:18:42.888Z,29.00
2023-03-17T11:21:14.292Z,29.03
2023-03-17T11:23:55.012Z,29.01
2023-03-17T11:26:32.059Z,29.04
2023-03-17T11:29:27.774Z,29.22
2023-03-17T11:31:57.481Z,29.57
2023-03-17T11:34:52.543Z,29.56
2023-03-17T11:37:50.238Z,29.35
2023-03-17T11:40:46.112Z,29.41
2023-03-17T11:43:21.950Z,29.51
2023-03-17T11:45:54.835Z,29.67
2023-03-17T11:48:47.066Z,29.59
2023-03-17T11:51:27.502Z,29.77
2023-03-17T11:54:07.971Z,29.92
2023-03-17T11:56:46.237Z,29.75
2023-03-17T11:59:38.387Z,30.00
2023-03-17T12:02:07.853Z,30.17
2023-03-17T12:04:51.257Z,30.49
2023-03-17T12:07:17.956Z,30.47
2023-03-17T12:09:50.781Z,30.56
2023-03-17T12:12:28.289Z,30.55
2023-03-17T12:14:57.855Z,30.34
2023-03-17T12:17:34.537Z,30.38
2023-03-17T12:20:19.966Z,30.62
2023-03-17T12:23:11.046Z,30.61
2023-03-17T12:25:45.302Z,30.60
2023-03-17T12:28:23.150Z,29.93
2023-03-17T12:30:55.355Z,29.79
2023-03-17T12:33:29.641Z,29.74
2023-03-17T12:35:58.861Z,29.59
2023-03-17T12:38:38.225Z,30.03
2023-03-17T12:41:31.480Z,30.04
2023-03-17T12:44:07.905Z,29.89
2023-03-17T12:46:52.204Z,30.12
2023-03-17T12:49:52.706Z,30.13
2023-03-17T12:52:48.001Z,30.27
2023-03-17T12:55:17.610Z,29.90
2023-03-17T12:57:46.873Z,30.19
2023-03-17T13:00:29.556Z,30.49
2023-03-17T13:03:23.421Z,30.60
2023-03-17T13:05:55.107Z,30.51
2023-03-17T13:08:28.207Z,30.51
2023-03-17T13:11:14.648Z,30.28
2023-03-17T13:13:44.507Z,30.44
2023-03-17T13:16:39.315Z,30.42
2023-03-17T13:19:20.084Z,30.23
2023-03-17T13:22:03.619Z,30.12
2023-03-17T13:24:46.880Z,29.49
2023-03-17T13:27:34.879Z,29.46
2023-03-17T13:30:37.624Z,28.72
2023-03-17T13:33:10.722Z,28.52
2023-03-17T13:36:04.081Z,28.63
2023-03-17T13:39:04.884Z,28.20
2023-03-17T13:41:52.009Z,28.34
2023-03-17T13:44:25.519Z,27.98
2023-03-17T13:46:53.065Z,28.17
2023-03-17T13:49:19.593Z,28.15
2023-03-17T13:52:01.675Z,28.16
2023-03-17T13:54:28.664Z,28.29
2023-03-17T13:57:00.068Z,28.36
2023-03-17T13:59:55.609Z,28.57
2023-03-17T14:02:25.297Z,28.60
2023-03-17T14:04:55.803Z,28.81
2023-03-17T14:07:27.118Z,29.10
2023-03-17T14:10:00.020Z,29.33
2023-03-17T14:13:02.576Z,29.22
2023-03-17T14:15:29.637Z,29.52
2023-03-17T14:18:08.776Z,29.86
2023-03-17T14:20:36.437Z,29.94
2023-03-17T14:23:04.476Z,29.78
2023-03-17T14:25:35.471Z,29.68
2023-03-17T14:28:09.341Z,30.16
2023-03-17T14:30:39.568Z,30.01
2023-03-17T14:33:13.186Z,30.01
2023-03-17T14:35:43.615Z,29.71
2023-03-17T14:38:26.836Z,29.84
2023-03-17T14:41:15.453Z,29.76
2023-03-17T14:43:44.240Z,30.04
2023-03-17T14:46:18.554Z,29.84
2023-03-17T14:48:48.891Z,30.00
2023-03-17T14:51:25.166Z,29.98
2023-03-17T14:53:54.501Z,30.03
2023-03-17T14:56:24.124Z,30.02
2023-03-17T14:58:52.382Z,30.38
2023-03-17T15:01:36.463Z,30.17
2023-03-17T15:04:24.866Z,30.30
2023-03-17T15:06:54.609Z,30.17
2023-03-17T15:09:34.296Z,30.21
2023-03-17T15:12:24.626Z,30.32
2023-03-17T15:14:54.464Z,30.21
2023-03-17T15:17:26.349Z,30.54
2023-03-17T15:19:58.188Z,30.64
2023-03-17T15:22:44.718Z,30.49
2023-03-17T15:25:17.693Z,30.87
2023-03-17T15:27:45.549Z,30.79
2023-03-17T15:30:16.527Z,30.55
2023-03-17T15:32:45.261Z,30.75
2023-03-17T15:35:13.984Z,31.02
2023-03-17T15:37:41.578Z,30.97
2023-03-17T15:40:10.705Z,30.82
2023-03-17T15:42:39.764Z,31.60
2023-03-17T15:45:07.815Z,32.35
2023-03-17T15:47:39.171Z,33.20
2023-03-17T15:50:16.711Z,33.01
2023-03-17T15:52:44.656Z,33.37
2023-03-17T15:55:22.879Z,33.45
2023-03-17T15:57:55.067Z,34.04
2023-03-17T16:00:24.182Z,33.70
2023-03-17T16:02:56.217Z,33.45
2023-03-17T16:05:29.403Z,33.30
2023-03-17T16:07:58.661Z,32.57
2023-03-17T16:10:32.239Z,32.40
2023-03-17T16:12:59.426Z,32.25
2023-03-17T16:15:29.334Z,32.06
2023-03-17T16:17:59.242Z,31.80
2023-03-17T16:20:31.365Z,31.93
2023-03-17T16:23:04.694Z,31.49
2023-03-17T16:25:32.466Z,31.41
2023-03-17T16:28:01.660Z,31.24
2023-03-17T16:30:31.491Z,30.85
2023-03-17T16:33:02.269Z,31.03
2023-03-17T16:35:29.359Z,30.59
2023-03-17T16:37:56.253Z,30.79
2023-03-17T16:40:29.092Z,30.64
2023-03-17T16:42:55.835Z,30.55
2023-03-17T16:45:34.067Z,30.36
2023-03-17T16:48:04.024Z,30.33
2023-03-17T16:50:33.608Z,30.57
2023-03-17T16:53:00.474Z,30.29
2023-03-17T16:55:30.477Z,30.29
2023-03-17T16:58:00.932Z,30.63
2023-03-17T17:00:29.934Z,30.54
2023-03-17T17:02:58.165Z,30.64
2023-03-17T17:05:28.199Z,30.44
2023-03-17T17:07:56.996Z,30.81
2023-03-17T17:10:25.904Z,31.06
2023-03-17T17:12:53.004Z,31.14
2023-03-17T17:15:21.708Z,31.01
2023-03-17T17:18:01.328Z,30.56
2023-03-17T17:20:31.816Z,30.85
2023-03-17T17:23:00.558Z,30.61
2023-03-17T17:25:28.108Z,30.85
2023-03-17T17:27:56.353Z,30.70
2023-03-17T17:30:28.038Z,30.55
2023-03-17T17:32:59.999Z,30.75
2023-03-17T17:35:32.787Z,30.38
2023-03-17T17:38:01.477Z,30.49
2023-03-17T17:40:32.224Z,30.47
2023-03-17T17:42:59.558Z,30.33
2023-03-17T17:45:26.491Z,30.60
2023-03-17T17:47:53.123Z,30.40
2023-03-17T17:50:26.041Z,30.51
2023-03-17T17:52:52.874Z,30.86
2023-03-17T17:55:22.073Z,31.01
2023-03-17T17:57:52.299Z,30.91
2023-03-17T18:00:19.732Z,31.28
2023-03-17T18:02:46.344Z,31.25
2023-03-17T18:05:13.433Z,31.16
2023-03-17T18:07:40.596Z,31.07
2023-03-17T18:10:07.980Z,31.26
2023-03-17T18:12:37.974Z,31.39
2023-03-17T18:15:05.490Z,31.25
2023-03-17T18:17:32.624Z,31.51
2023-03-17T18:20:00.273Z,31.24
2023-03-17T18:22:27.864Z,30.98
2023-03-17T18:24:56.474Z,31.22
2023-03-17T18:27:23.722Z,30.99
2023-03-17T18:29:51.135Z,31.03
2023-03-17T18:32:17.833Z,31.09
2023-03-17T18:34:47.968Z,30.99
2023-03-17T18:37:17.635Z,30.85
2023-03-17T18:39:48.824Z,30.81
2023-03-17T18:42:19.791Z,30.74
2023-03-17T18:44:46.476Z,30.83
2023-03-17T18:47:15.846Z,30.58
2023-03-17T18:49:44.109Z,30.82
2023-03-17T18:52:13.317Z,30.70
2023-03-17T18:54:40.419Z,30.95
2023-03-17T18:57:08.436Z,30.86
2023-03-17T18:59:34.979Z,31.10
2023-03-17T19:02:02.553Z,31.13
2023-03-17T19:04:30.300Z,31.59
2023-03-17T19:06:57.981Z,31.05
2023-03-17T19:09:24.568Z,31.00
2023-03-17T19:11:51.319Z,30.74
2023-03-17T19:14:17.975Z,30.72
2023-03-17T19:16:45.021Z,30.84
2023-03-17T19:19:11.756Z,30.54
2023-03-17T19:21:38.477Z,31.00
2023-03-17T19:24:05.537Z,31.14
2023-03-17T19:26:34.094Z,31.23
2023-03-17T19:29:03.620Z,31.23
2023-03-17T19:31:30.298Z,31.55
2023-03-17T19:34:01.921Z,31.90
2023-03-17T19:36:36.085Z,31.75
2023-03-17T19:39:07.206Z,31.88
2023-03-17T19:41:37.870Z,31.77
2023-03-17T19:44:10.597Z,31.83
2023-03-17T19:46:38.044Z,31.57
2023-03-17T19:49:04.931Z,31.72
2023-03-17T19:51:33.174Z,31.84
2023-03-17T19:54:00.566Z,32.00
2023-03-17T19:56:27.938Z,31.71
2023-03-17T19:58:55.766Z,31.91
2023-03-17T20:01:23.108Z,32.04
2023-03-17T20:03:52.451Z,31.84
2023-03-17T20:06:19.259Z,31.79
2023-03-17T20:08:46.080Z,31.98
2023-03-17T20:11:13.454Z,31.95
2023-03-17T20:13:42.058Z,32.16
2023-03-17T20:16:09.253Z,32.57
2023-03-17T20:18:39.364Z,32.35
2023-03-17T20:21:15.844Z,32.86
2023-03-17T20:23:45.377Z,33.17
2023-03-17T20:26:20.118Z,32.99
2023-03-17T20:28:52.621Z,33.20
2023-03-17T20:31:19.522Z,33.65
2023-03-17T20:33:46.305Z,33.95
2023-03-17T20:36:18.831Z,33.70
2023-03-17T20:38:45.685Z,34.04
2023-03-17T20:41:15.327Z,34.22
2023-03-17T20:43:45.190Z,34.18
2023-03-17T20:46:23.054Z,34.14
2023-03-17T20:49:01.291Z,34.42
2023-03-17T20:51:30.990Z,34.35
2023-03-17T20:53:58.336Z,34.46
2023-03-17T20:56:26.563Z,34.16
2023-03-17T20:58:53.550Z,33.89
2023-03-17T21:01:21.764Z,33.45
2023-03-17T21:03:49.653Z,33.46
2023-03-17T21:06:23.078Z,33.58
2023-03-17T21:08:55.534Z,33.48
2023-03-17T21:11:26.939Z,32.84
2023-03-17T21:13:56.152Z,32.98
2023-03-17T21:16:25.603Z,32.76
2023-03-17T21:18:52.652Z,32.59
2023-03-17T21:21:23.066Z,32.76
2023-03-17T21:23:56.228Z,32.55
2023-03-17T21:26:26.086Z,32.48
2023-03-17T21:28:52.691Z,32.28
2023-03-17T21:31:21.685Z,32.62
2023-03-17T21:33:50.503Z,32.31
2023-03-17T21:36:18.095Z,32.33
2023-03-17T21:38:46.048Z,32.50
2023-03-17T21:41:29.318Z,32.02
2023-03-17T21:43:56.388Z,32.26
2023-03-17T21:46:23.346Z,31.97
2023-03-17T21:48:50.143Z,31.96
2023-03-17T21:51:16.804Z,32.18
2023-03-17T21:53:43.616Z,31.97
2023-03-17T21:56:12.430Z,32.07
2023-03-17T21:58:40.141Z,31.84
2023-03-17T22:01:07.553Z,31.76
2023-03-17T22:03:36.587Z,31.92
2023-03-17T22:06:05.381Z,32.08
2023-03-17T22:08:33.257Z,31.69
2023-03-17T22:11:01.217Z,31.71
2023-03-17T22:13:30.169Z,31.90
2023-03-17T22:15:59.353Z,31.67
2023-03-17T22:18:25.953Z,31.78
2023-03-17T22:20:56.537Z,31.77
2023-03-17T22:23:25.563Z,31.77
2023-03-17T22:25:52.650Z,31.50
2023-03-17T22:28:19.551Z,31.65
2023-03-17T22:30:46.252Z,31.37
2023-03-17T22:33:14.473Z,31.62
2023-03-17T22:35:41.355Z,31.47
2023-03-17T22:38:13.077Z,31.28
2023-03-17T22:40:39.966Z,31.51
2023-03-17T22:43:07.236Z,31.26
2023-03-17T22:45:37.057Z,31.16
2023-03-17T22:48:04.176Z,31.40
2023-03-17T22:50:31.111Z,31.41
2023-03-17T22:52:57.895Z,31.48
2023-03-17T22:55:24.638Z,31.31
2023-03-17T22:57:51.551Z,31.32
2023-03-17T23:00:18.711Z,31.06
2023-03-17T23:02:46.399Z,31.24
2023-03-17T23:05:13.613Z,31.09
2023-03-17T23:07:50.418Z,30.94
2023-03-17T23:10:22.915Z,31.19
2023-03-17T23:12:50.775Z,31.07
2023-03-17T23:15:18.869Z,31.04
2023-03-17T23:17:46.226Z,30.98
2023-03-17T23:20:13.632Z,31.14
2023-03-17T23:22:41.297Z,31.29
2023-03-17T23:25:08.574Z,30.72
2023-03-17T23:27:35.282Z,30.99
2023-03-17T23:30:01.967Z,30.94
2023-03-17T23:32:28.976Z,30.90
2023-03-17T23:34:55.758Z,31.16
2023-03-17T23:37:22.441Z,31.09
2023-03-17T23:39:49.358Z,31.02
2023-03-17T23:42:17.341Z,30.77
2023-03-17T23:44:45.180Z,31.01
2023-03-17T23:47:12.141Z,30.54
2023-03-17T23:49:39.083Z,30.80
2023-03-17T23:52:05.958Z,30.60
2023-03-17T23:54:34.024Z,30.59
2023-03-17T23:57:01.074Z,30.51
2023-03-17T23:59:29.186Z,30.82
